Time;durP1;ratioP1;P1;durP2;ratioP2;P2;SDS_P1;SDS_P2;PMS_P1;PMS_P2;Temp;Humidity;BMP_temperature;BMP_pressure;BME280_temperature;BME280_humidity;BME280_pressure;Samples;Min_cycle;Max_cycle;Signal;HPM_P1;HPM_P2
2023/01/03 00:00:19;;;;;;;3.87;2.47;;;;;;;8.69;100.00;101364.50;4932100;28;20067;-81
2023/01/03 00:02:46;;;;;;;4.27;2.27;;;;;;;8.71;100.00;101357.47;4955765;28;20050;-82
2023/01/03 00:05:13;;;;;;;4.20;2.30;;;;;;;8.68;100.00;101357.47;4943346;29;20040;-81
2023/01/03 00:07:40;;;;;;;4.37;2.30;;;;;;;8.68;100.00;101358.34;4936837;29;20044;-82
2023/01/03 00:10:09;;;;;;;4.80;2.23;;;;;;;8.68;100.00;101358.34;4947866;28;20881;-81
2023/01/03 00:12:36;;;;;;;3.63;2.40;;;;;;;8.67;100.00;101376.81;4937437;29;20050;-81
2023/01/03 00:15:03;;;;;;;4.30;2.00;;;;;;;8.69;100.00;101375.03;4935137;29;20051;-82
2023/01/03 00:17:33;;;;;;;4.00;2.10;;;;;;;8.63;100.00;101373.28;4970743;28;20113;-81
2023/01/03 00:20:02;;;;;;;3.03;1.90;;;;;;;8.63;100.00;101375.03;4939879;28;20092;-80
2023/01/03 00:22:31;;;;;;;3.57;1.97;;;;;;;8.61;100.00;101384.69;4950127;28;20043;-82
2023/01/03 00:24:58;;;;;;;5.03;3.00;;;;;;;8.55;100.00;101388.19;4963944;28;20125;-83
2023/01/03 00:27:26;;;;;;;4.53;2.40;;;;;;;8.55;100.00;101389.97;4926497;28;20051;-83
2023/01/03 00:29:53;;;;;;;4.83;2.57;;;;;;;8.49;100.00;101384.69;4932797;29;20049;-81
2023/01/03 00:32:21;;;;;;;4.93;2.13;;;;;;;8.45;100.00;101391.72;4956391;28;20054;-80
2023/01/03 00:34:47;;;;;;;6.40;2.20;;;;;;;8.30;100.00;101392.56;4953166;29;20047;-83
2023/01/03 00:37:14;;;;;;;2.77;1.97;;;;;;;8.32;100.00;101408.34;4950263;29;20081;-83
2023/01/03 00:39:42;;;;;;;3.77;2.00;;;;;;;8.42;100.00;101408.41;4931150;28;20105;-85
2023/01/03 00:42:09;;;;;;;3.63;2.03;;;;;;;8.32;100.00;101414.50;4941450;28;20162;-86
2023/01/03 00:44:38;;;;;;;3.30;2.00;;;;;;;8.43;100.00;101415.44;4934247;29;20059;-83
2023/01/03 00:47:05;;;;;;;11.63;2.40;;;;;;;8.41;100.00;101418.94;4923531;29;20058;-83
2023/01/03 00:49:32;;;;;;;2.77;2.00;;;;;;;8.40;100.00;101436.47;4938908;29;20043;-84
2023/01/03 00:51:58;;;;;;;2.90;2.07;;;;;;;8.41;100.00;101434.75;4951920;28;20557;-83
2023/01/03 00:54:25;;;;;;;4.07;1.80;;;;;;;8.36;100.00;101442.63;4965776;28;20038;-85
2023/01/03 00:56:52;;;;;;;3.83;1.87;;;;;;;8.32;100.00;101435.56;4939800;28;20074;-83
2023/01/03 00:59:20;;;;;;;2.97;1.70;;;;;;;8.29;100.00;101437.31;4921127;29;20047;-85
2023/01/03 01:01:49;;;;;;;2.57;1.60;;;;;;;8.18;100.00;101447.84;4935775;28;20035;-82
2023/01/03 01:04:27;;;;;;;4.63;2.00;;;;;;;8.07;100.00;101445.19;4953897;28;20098;-83
2023/01/03 01:06:57;;;;;;;3.03;1.50;;;;;;;8.03;100.00;101450.44;4966870;28;20461;-83
2023/01/03 01:09:31;;;;;;;3.83;1.83;;;;;;;8.06;100.00;101459.19;4941087;28;20098;-84
2023/01/03 01:11:57;;;;;;;3.20;2.20;;;;;;;8.00;100.00;101453.94;4936272;29;20094;-82
2023/01/03 01:14:28;;;;;;;6.80;2.10;;;;;;;8.01;100.00;101470.59;4963684;28;20101;-83
2023/01/03 01:17:01;;;;;;;3.43;1.93;;;;;;;7.89;100.00;101482.81;4921957;29;20047;-84
2023/01/03 01:19:31;;;;;;;4.70;2.17;;;;;;;7.87;100.00;101476.69;4923652;29;20050;-82
2023/01/03 01:21:58;;;;;;;3.67;1.90;;;;;;;7.88;100.00;101482.81;4924811;29;20290;-84
2023/01/03 01:24:27;;;;;;;3.30;2.33;;;;;;;7.83;100.00;101487.22;4936944;28;20040;-84
2023/01/03 01:26:54;;;;;;;2.67;1.73;;;;;;;7.76;100.00;101490.69;4950231;28;20051;-84
2023/01/03 01:29:20;;;;;;;4.87;1.73;;;;;;;7.67;100.00;101498.53;4936221;29;20047;-85
2023/01/03 01:31:47;;;;;;;2.47;1.70;;;;;;;7.53;100.00;101498.44;4924505;29;20098;-82
2023/01/03 01:34:16;;;;;;;3.03;2.20;;;;;;;7.57;100.00;101505.50;4943011;29;20047;-82
2023/01/03 01:36:46;;;;;;;2.63;1.70;;;;;;;7.55;100.00;101507.22;4920968;28;20047;-84
2023/01/03 01:39:22;;;;;;;2.83;1.90;;;;;;;7.61;100.00;101507.25;4943488;29;20047;-83
2023/01/03 01:44:54;;;;;;;2.43;1.63;;;;;;;7.45;99.72;101518.56;4966651;28;20043;-83
2023/01/03 01:47:48;;;;;;;6.77;2.10;;;;;;;7.41;99.00;101514.16;4949709;28;20171;-83
2023/01/03 01:50:37;;;;;;;3.78;1.67;;;;;;;7.38;99.23;101522.03;4957780;28;20051;-83
2023/01/03 01:53:27;;;;;;;3.80;1.63;;;;;;;7.35;99.03;101517.63;4948601;28;20053;-84
2023/01/03 01:55:56;;;;;;;3.07;1.57;;;;;;;7.21;98.40;101529.78;4948581;28;20082;-83
2023/01/03 01:58:27;;;;;;;1.50;1.40;;;;;;;7.24;95.68;101533.34;4943962;28;20051;-83
2023/01/03 02:00:54;;;;;;;5.33;2.10;;;;;;;7.14;94.45;101538.50;4942354;28;20486;-84
2023/01/03 02:03:21;;;;;;;3.63;1.30;;;;;;;7.09;92.58;101535.84;4932497;28;21515;-83
2023/01/03 02:05:52;;;;;;;3.10;1.70;;;;;;;7.17;93.04;101536.78;4936724;28;20081;-83
2023/01/03 02:08:19;;;;;;;1.97;1.30;;;;;;;7.12;92.36;101533.22;4925374;28;20574;-83
2023/01/03 02:11:14;;;;;;;3.73;2.77;;;;;;;6.98;92.49;101537.53;4930645;28;20106;-83
2023/01/03 02:14:00;;;;;;;;;;;;;;;6.96;94.31;101531.34;4955936;28;20043;-82
2023/01/03 02:17:02;;;;;;;2.77;1.83;;;;;;;6.97;94.14;101536.59;4953208;28;19929;-82
2023/01/03 02:20:14;;;;;;;5.30;2.17;;;;;;;6.95;93.81;101540.09;4924542;29;20052;-83
2023/01/03 02:23:23;;;;;;;2.50;1.40;;;;;;;6.91;94.87;101548.84;4945135;28;20490;-85
2023/01/03 02:26:19;;;;;;;5.53;1.50;;;;;;;6.56;96.63;101545.84;4935184;29;20417;-83
2023/01/03 02:29:36;;;;;;;4.17;1.97;;;;;;;6.69;97.00;101561.75;4939672;29;20039;-83
2023/01/03 02:32:12;;;;;;;1.93;1.57;;;;;;;6.60;97.92;101559.03;4919053;29;20459;-84
2023/01/03 02:34:49;;;;;;;4.53;1.40;;;;;;;6.57;98.04;101558.13;4918880;29;20114;-83
2023/01/03 02:37:36;;;;;;;3.33;2.17;;;;;;;6.57;98.76;101559.03;4942300;29;20083;-82
2023/01/03 02:40:14;;;;;;;1.33;1.20;;;;;;;6.49;98.86;101566.81;4942395;29;20047;-85
2023/01/03 02:43:04;;;;;;;3.07;1.20;;;;;;;6.44;98.54;101570.25;4965928;28;20058;-84
2023/01/03 02:45:45;;;;;;;2.70;1.40;;;;;;;6.33;99.59;101572.75;4946737;29;20082;-84
2023/01/03 02:48:16;;;;;;;4.33;1.93;;;;;;;6.31;99.69;101584.09;4952528;28;20074;-84
2023/01/03 02:50:48;;;;;;;4.03;1.97;;;;;;;6.34;100.00;101579.75;4965314;28;20042;-82
2023/01/03 02:53:19;;;;;;;1.90;1.57;;;;;;;6.17;100.00;101578.69;4957877;28;20073;-86
2023/01/03 02:55:48;;;;;;;2.43;1.77;;;;;;;6.16;100.00;101587.41;4928699;28;20133;-82
2023/01/03 02:58:18;;;;;;;2.87;1.80;;;;;;;6.23;100.00;101593.63;4949417;28;20053;-85
2023/01/03 03:00:49;;;;;;;4.60;1.80;;;;;;;6.23;100.00;101593.63;4959732;28;20550;-85
2023/01/03 03:03:19;;;;;;;3.73;1.83;;;;;;;6.19;100.00;101596.19;4948646;28;20473;-84
2023/01/03 03:05:52;;;;;;;2.60;1.80;;;;;;;6.13;100.00;101587.34;4954671;28;20045;-85
2023/01/03 03:08:19;;;;;;;3.50;1.83;;;;;;;6.10;100.00;101598.72;4941549;29;20396;-86
2023/01/03 03:14:19;;;;;;;3.03;1.70;;;;;;;5.99;100.00;101591.56;4940151;29;20047;-84
2023/01/03 03:16:48;;;;;;;3.00;1.80;;;;;;;6.00;100.00;101611.69;4866697;29;20582;-86
2023/01/03 03:24:48;;;;;;;4.00;1.70;;;;;;;5.97;100.00;101615.16;4882533;29;20058;-84
2023/01/03 03:24:50;;;;;;;2.83;1.87;;;;;;;5.82;100.00;101620.16;4955537;28;20035;-84
2023/01/03 03:30:10;;;;;;;5.47;1.90;;;;;;;5.67;100.00;101623.44;4955608;28;20047;-83
2023/01/03 03:32:37;;;;;;;2.70;1.77;;;;;;;5.72;100.00;101621.78;4936612;29;20047;-82
2023/01/03 03:35:05;;;;;;;2.97;1.87;;;;;;;5.55;100.00;101623.22;4928010;29;20047;-85
2023/01/03 03:37:33;;;;;;;5.53;1.63;;;;;;;5.45;100.00;101627.44;4943750;29;20047;-83
2023/01/03 03:45:48;;;;;;;3.80;1.50;;;;;;;5.32;100.00;101633.38;4932930;29;20047;-83
2023/01/03 03:48:28;;;;;;;2.45;1.60;;;;;;;5.26;100.00;101642.00;4967507;28;20094;-83
2023/01/03 03:51:07;;;;;;;4.13;2.30;;;;;;;5.15;100.00;101647.91;4935790;28;20047;-83
2023/01/03 03:53:35;;;;;;;5.20;2.03;;;;;;;5.17;100.00;101649.69;4932336;28;20625;-80
2023/01/03 03:56:07;;;;;;;2.70;1.50;;;;;;;5.14;100.00;101657.50;4914598;29;20592;-80
2023/01/03 03:58:42;;;;;;;3.67;1.50;;;;;;;5.07;100.00;101660.88;4917447;29;20054;-81
2023/01/03 04:01:11;;;;;;;3.33;2.23;;;;;;;5.13;100.00;101661.00;4921149;29;20495;-80
2023/01/03 04:03:41;;;;;;;4.40;2.53;;;;;;;5.12;100.00;101664.44;4927560;28;20666;-80
2023/01/03 04:06:14;;;;;;;4.20;2.27;;;;;;;4.97;100.00;101665.06;4924128;29;20419;-80
2023/01/03 04:08:41;;;;;;;3.80;1.87;;;;;;;5.05;100.00;101668.72;4919856;29;20051;-80
2023/01/03 04:11:08;;;;;;;9.10;2.60;;;;;;;4.93;100.00;101676.31;4943432;28;20043;-80
2023/01/03 04:13:36;;;;;;;4.57;2.03;;;;;;;4.93;100.00;101678.06;4915268;29;20067;-80
2023/01/03 04:16:05;;;;;;;3.57;2.07;;;;;;;4.87;100.00;101678.81;4919781;29;20083;-79
2023/01/03 04:18:32;;;;;;;3.47;2.30;;;;;;;4.93;100.00;101685.91;4940640;28;20138;-79
2023/01/03 04:20:59;;;;;;;6.27;3.30;;;;;;;4.82;100.00;101682.22;4957928;28;20051;-80
2023/01/03 04:23:25;;;;;;;6.27;2.30;;;;;;;4.83;100.00;101689.22;4958653;28;20425;-81
2023/01/03 04:25:52;;;;;;;7.53;2.10;;;;;;;4.84;100.00;101694.47;4918195;29;20051;-81
2023/01/03 04:28:19;;;;;;;5.50;2.63;;;;;;;4.82;100.00;101693.56;4907800;29;20685;-81
2023/01/03 04:30:46;;;;;;;4.40;2.20;;;;;;;4.71;100.00;101705.59;4950880;28;20474;-80
2023/01/03 04:33:13;;;;;;;2.53;1.77;;;;;;;4.68;100.00;101708.13;4948799;28;20042;-80
2023/01/03 04:35:39;;;;;;;3.77;1.97;;;;;;;4.68;100.00;101697.66;4923499;28;20042;-80
2023/01/03 04:38:07;;;;;;;3.70;2.03;;;;;;;4.65;100.00;101715.91;4926090;29;20440;-80
2023/01/03 04:40:34;;;;;;;5.70;2.00;;;;;;;4.55;100.00;101713.97;4948083;29;20043;-80
2023/01/03 04:45:49;;;;;;;4.03;2.10;;;;;;;4.48;100.00;101719.06;4937260;29;20050;-80
2023/01/03 04:48:16;;;;;;;4.30;2.07;;;;;;;4.55;100.00;101727.06;4935138;29;20043;-80
2023/01/03 04:50:59;;;;;;;6.07;2.20;;;;;;;4.60;100.00;101725.41;4926661;29;20393;-81
2023/01/03 04:53:26;;;;;;;3.80;2.33;;;;;;;4.63;100.00;101742.06;4916161;29;20474;-80
2023/01/03 04:55:55;;;;;;;4.93;2.80;;;;;;;4.64;100.00;101737.72;4925729;29;20102;-80
2023/01/03 04:58:22;;;;;;;4.80;2.07;;;;;;;4.65;100.00;101740.34;4951194;28;20804;-81
2023/01/03 05:00:49;;;;;;;3.23;2.70;;;;;;;4.60;100.00;101735.88;4924265;29;20046;-80
2023/01/03 05:03:16;;;;;;;6.97;2.30;;;;;;;4.56;100.00;101739.28;4933442;29;20039;-80
2023/01/03 05:05:51;;;;;;;7.27;1.93;;;;;;;4.48;100.00;101741.72;4953066;29;20146;-80
2023/01/03 05:08:17;;;;;;;2.80;1.80;;;;;;;4.43;100.00;101749.47;4954490;28;20047;-81
2023/01/03 05:10:44;;;;;;;6.27;2.23;;;;;;;4.40;100.00;101756.38;4938292;29;20499;-81
2023/01/03 05:13:11;;;;;;;3.83;2.00;;;;;;;4.32;100.00;101757.94;4953843;29;20051;-80
2023/01/03 05:15:38;;;;;;;7.27;2.23;;;;;;;4.33;100.00;101757.97;4935008;29;20114;-80
2023/01/03 05:18:05;;;;;;;5.93;2.17;;;;;;;4.47;100.00;101764.41;4953386;29;20047;-79
2023/01/03 05:26:18;;;;;;;5.20;2.40;;;;;;;4.30;100.00;101772.72;4961119;28;20057;-81
2023/01/03 05:28:54;;;;;;;5.13;2.50;;;;;;;4.10;100.00;101773.13;4956382;28;20039;-80
2023/01/03 05:31:21;;;;;;;4.40;2.00;;;;;;;4.10;100.00;101772.25;4958443;28;20050;-81
2023/01/03 05:33:47;;;;;;;4.47;2.00;;;;;;;4.07;100.00;101769.56;4929638;28;20758;-80
2023/01/03 05:36:14;;;;;;;3.53;2.00;;;;;;;4.04;100.00;101767.78;4953050;28;20053;-81
2023/01/03 05:38:42;;;;;;;4.27;2.13;;;;;;;4.01;100.00;101772.03;4957831;28;20045;-80
2023/01/03 05:41:09;;;;;;;3.87;1.70;;;;;;;3.91;100.00;101781.38;4957233;28;20070;-82
2023/01/03 05:43:36;;;;;;;3.33;1.70;;;;;;;3.83;100.00;101780.31;4944102;29;20131;-81
2023/01/03 05:46:02;;;;;;;10.00;3.07;;;;;;;3.99;100.00;101778.94;4934121;29;20047;-81
2023/01/03 05:48:29;;;;;;;5.27;2.77;;;;;;;3.91;100.00;101781.38;4932146;29;20044;-81
2023/01/03 05:50:56;;;;;;;5.93;2.43;;;;;;;3.97;100.00;101780.66;4934228;29;20096;-80
2023/01/03 05:53:24;;;;;;;4.90;2.63;;;;;;;3.85;100.00;101778.59;4948201;28;20044;-80
2023/01/03 05:55:50;;;;;;;3.90;2.23;;;;;;;3.84;100.00;101793.41;4940637;28;20491;-81
2023/01/03 05:58:17;;;;;;;4.67;1.97;;;;;;;3.75;100.00;101793.19;4937099;29;20050;-81
2023/01/03 06:00:44;;;;;;;3.70;2.30;;;;;;;3.71;100.00;101791.34;4937388;28;20130;-82
2023/01/03 06:03:10;;;;;;;6.70;2.67;;;;;;;3.62;100.00;101806.78;4921254;29;20111;-80
2023/01/03 06:05:37;;;;;;;9.17;3.47;;;;;;;3.61;100.00;101797.16;4952869;28;20051;-81
2023/01/03 06:08:07;;;;;;;4.13;2.40;;;;;;;3.50;100.00;101801.22;4952939;29;20043;-81
2023/01/03 06:10:33;;;;;;;3.57;2.13;;;;;;;3.43;100.00;101799.28;4933208;29;20500;-81
2023/01/03 06:13:00;;;;;;;6.13;2.50;;;;;;;3.44;100.00;101799.31;4918056;29;20046;-80
2023/01/03 06:15:27;;;;;;;5.50;2.00;;;;;;;3.35;100.00;101806.91;4933718;29;20047;-81
2023/01/03 06:17:56;;;;;;;8.83;3.10;;;;;;;3.51;100.00;101803.88;4901881;29;20043;-80
2023/01/03 06:20:24;;;;;;;5.27;2.63;;;;;;;3.42;100.00;101806.25;4917976;29;20047;-81
2023/01/03 06:22:52;;;;;;;5.67;2.67;;;;;;;3.50;100.00;101801.22;4935125;29;20427;-81
2023/01/03 06:25:19;;;;;;;9.00;3.20;;;;;;;3.52;100.00;101807.38;4949326;29;20052;-81
2023/01/03 06:27:46;;;;;;;6.60;3.27;;;;;;;3.46;100.00;101818.56;4901575;29;20444;-81
2023/01/03 06:30:14;;;;;;;7.20;3.30;;;;;;;3.33;100.00;101817.31;4904453;29;20788;-82
2023/01/03 06:32:42;;;;;;;4.87;2.63;;;;;;;3.33;100.00;101824.28;4936715;29;20047;-82
2023/01/03 06:35:08;;;;;;;4.77;2.80;;;;;;;3.32;100.00;101815.56;4920197;29;20074;-81
2023/01/03 06:37:35;;;;;;;10.47;3.10;;;;;;;3.37;100.00;101819.19;4935652;29;20043;-80
2023/01/03 06:40:02;;;;;;;6.63;3.30;;;;;;;3.33;100.00;101822.56;4936540;28;20054;-81
2023/01/03 06:42:43;;;;;;;3.77;2.80;;;;;;;3.37;100.00;101823.53;4936809;28;20046;-82
2023/01/03 06:53:36;;;;;;;8.80;3.07;;;;;;;3.52;100.00;101828.28;4939466;29;20047;-82
2023/01/03 06:56:04;;;;;;;8.63;3.40;;;;;;;3.38;100.00;101838.38;4920263;29;20419;-82
2023/01/03 06:58:31;;;;;;;6.83;3.30;;;;;;;3.40;100.00;101841.91;4936541;29;20054;-82
2023/01/03 07:00:59;;;;;;;5.47;3.03;;;;;;;3.27;100.00;101838.03;4920988;29;20039;-83
2023/01/03 07:03:25;;;;;;;7.07;2.70;;;;;;;3.27;100.00;101856.31;4920587;29;20411;-82
2023/01/03 07:05:52;;;;;;;6.57;3.20;;;;;;;3.32;100.00;101856.47;4969171;28;20442;-83
2023/01/03 07:08:19;;;;;;;5.13;3.10;;;;;;;3.27;100.00;101855.44;4956655;28;20043;-82
2023/01/03 07:10:46;;;;;;;4.37;3.00;;;;;;;3.20;100.00;101864.84;4953415;28;20879;-83
2023/01/03 07:15:58;;;;;;;6.23;4.10;;;;;;;3.28;100.00;101876.41;4941085;29;20053;-82
2023/01/03 07:18:27;;;;;;;5.33;3.10;;;;;;;3.35;100.00;101873.09;4938771;28;20094;-86
2023/01/03 07:20:54;;;;;;;5.80;3.57;;;;;;;3.38;100.00;101872.31;4959875;28;20102;-82
2023/01/03 07:23:21;;;;;;;5.70;3.30;;;;;;;3.43;100.00;101882.88;4927449;29;20042;-84
2023/01/03 07:25:47;;;;;;;8.47;3.60;;;;;;;3.52;100.00;101884.03;4934900;29;20074;-83
2023/01/03 07:28:15;;;;;;;5.80;3.30;;;;;;;3.58;100.00;101889.44;4931904;29;20103;-82
2023/01/03 07:30:44;;;;;;;5.17;2.90;;;;;;;3.50;100.00;101895.28;4916508;29;20056;-82
2023/01/03 07:33:13;;;;;;;5.13;2.87;;;;;;;3.60;100.00;101898.19;4921091;29;20066;-82
2023/01/03 07:35:40;;;;;;;6.30;3.20;;;;;;;3.50;100.00;101893.56;4946952;28;20042;-84
2023/01/03 07:38:08;;;;;;;5.33;3.17;;;;;;;3.53;100.00;101901.50;4952986;28;20078;-83
2023/01/03 07:40:35;;;;;;;5.50;3.13;;;;;;;3.52;100.00;101901.44;4932608;29;20074;-83
2023/01/03 07:45:47;;;;;;;5.70;3.47;;;;;;;3.64;100.00;101907.00;4941957;29;20051;-84
2023/01/03 07:48:14;;;;;;;6.20;3.73;;;;;;;3.65;100.00;101908.78;4938189;28;20135;-84
2023/01/03 07:50:41;;;;;;;11.00;3.27;;;;;;;3.61;100.00;101906.91;4920903;28;20047;-82
2023/01/03 07:53:08;;;;;;;4.40;2.90;;;;;;;3.79;100.00;101915.28;4915855;29;20046;-84
2023/01/03 07:55:35;;;;;;;5.80;3.90;;;;;;;3.78;100.00;101913.47;4959000;28;20053;-83
2023/01/03 07:58:03;;;;;;;5.40;3.27;;;;;;;3.84;100.00;101916.28;4969836;28;20071;-84
2023/01/03 08:00:29;;;;;;;6.80;3.43;;;;;;;3.84;100.00;101918.88;4948578;28;20087;-84
2023/01/03 08:02:56;;;;;;;5.97;3.03;;;;;;;3.85;100.00;101914.53;4932548;29;20040;-83
2023/01/03 08:05:24;;;;;;;5.63;3.60;;;;;;;3.88;100.00;101919.88;4926995;28;20071;-84
2023/01/03 08:07:52;;;;;;;5.90;3.10;;;;;;;3.98;100.00;101918.38;4936244;28;20046;-86
2023/01/03 08:13:17;;;;;;;4.93;3.30;;;;;;;3.94;100.00;101922.63;4938440;29;20055;-83
2023/01/03 08:15:48;;;;;;;9.47;3.80;;;;;;;3.86;100.00;101925.03;4932689;29;20047;-83
2023/01/03 08:18:20;;;;;;;6.93;3.17;;;;;;;3.90;100.00;101932.13;4944540;28;20249;-85
2023/01/03 08:20:47;;;;;;;6.43;3.30;;;;;;;4.00;100.00;101922.78;4952469;28;20068;-83
2023/01/03 08:23:14;;;;;;;5.17;3.83;;;;;;;3.95;100.00;101934.84;4948650;29;20095;-86
2023/01/03 08:25:41;;;;;;;9.03;3.93;;;;;;;4.00;100.00;101937.59;4925269;29;20138;-86
2023/01/03 08:28:08;;;;;;;10.50;3.67;;;;;;;3.91;100.00;101946.97;4956974;29;20067;-83
2023/01/03 08:30:40;;;;;;;6.40;3.87;;;;;;;3.90;100.00;101939.97;4971369;28;20069;-87
2023/01/03 08:33:14;;;;;;;10.73;3.60;;;;;;;3.93;100.00;101942.66;4927348;29;20047;-86
2023/01/03 08:36:02;;;;;;;5.87;3.83;;;;;;;3.99;100.00;101941.94;4941460;28;20043;-86
2023/01/03 08:38:30;;;;;;;;;;;;;;;3.93;100.00;101953.13;4938665;29;20047;-82
2023/01/03 08:41:00;;;;;;;8.27;3.77;;;;;;;3.95;100.00;101958.38;4924255;29;20433;-83
2023/01/03 08:43:28;;;;;;;7.50;3.37;;;;;;;3.86;100.00;101959.00;4974049;28;20039;-83
2023/01/03 08:45:55;;;;;;;6.20;3.93;;;;;;;3.94;100.00;101951.38;4931907;29;20507;-84
2023/01/03 08:48:23;;;;;;;5.83;4.03;;;;;;;3.84;100.00;101960.72;4961956;28;20085;-83
2023/01/03 08:50:49;;;;;;;9.37;4.00;;;;;;;3.93;100.00;101960.06;4959321;28;20062;-84
2023/01/03 08:53:16;;;;;;;7.00;3.57;;;;;;;3.88;100.00;101961.69;4940149;28;20046;-83
2023/01/03 08:55:43;;;;;;;8.27;4.00;;;;;;;3.80;100.00;101966.72;4936900;29;20044;-83
2023/01/03 08:58:10;;;;;;;8.63;3.93;;;;;;;4.05;100.00;101967.38;4942757;29;20066;-84
2023/01/03 09:00:37;;;;;;;5.47;3.40;;;;;;;4.00;100.00;101969.88;4924353;29;20047;-83
2023/01/03 09:03:04;;;;;;;9.33;3.87;;;;;;;3.99;100.00;101981.16;4940459;29;20049;-83
2023/01/03 09:05:31;;;;;;;7.10;3.50;;;;;;;4.02;100.00;101976.00;4924624;29;20118;-83
2023/01/03 09:07:58;;;;;;;6.50;3.57;;;;;;;4.01;100.00;101982.09;4941064;29;20090;-84
2023/01/03 09:10:25;;;;;;;8.53;3.40;;;;;;;3.95;100.00;101979.31;4975581;28;20043;-83
2023/01/03 09:12:51;;;;;;;7.63;3.67;;;;;;;4.00;100.00;101982.06;4952266;28;20043;-83
2023/01/03 09:15:18;;;;;;;4.70;3.10;;;;;;;4.10;100.00;101981.47;4920908;29;20569;-84
2023/01/03 09:17:46;;;;;;;6.47;3.60;;;;;;;4.10;100.00;101984.06;4954809;29;20039;-84
2023/01/03 09:20:14;;;;;;;4.87;3.27;;;;;;;4.09;100.00;101985.81;4922577;29;20051;-82
2023/01/03 09:22:41;;;;;;;5.90;3.10;;;;;;;4.13;100.00;101987.66;4959436;28;20054;-83
2023/01/03 09:25:09;;;;;;;5.17;3.37;;;;;;;4.26;100.00;101993.22;4906414;29;20087;-84
2023/01/03 09:27:35;;;;;;;8.13;4.10;;;;;;;4.29;100.00;101996.81;5031750;23;20017;-80
2023/01/03 09:30:03;;;;;;;7.93;4.07;;;;;;;4.32;100.00;102002.13;4940853;28;20044;-82
2023/01/03 09:32:30;;;;;;;7.13;2.87;;;;;;;4.37;100.00;101997.91;4954848;28;20074;-81
2023/01/03 09:34:56;;;;;;;4.57;2.90;;;;;;;4.43;100.00;102005.00;4954968;29;20050;-80
2023/01/03 09:37:23;;;;;;;6.20;4.37;;;;;;;4.48;100.00;101992.94;4935901;29;20040;-79
2023/01/03 09:39:50;;;;;;;5.90;3.23;;;;;;;4.42;100.00;102001.50;4933246;29;20058;-80
2023/01/03 09:45:07;;;;;;;6.27;3.77;;;;;;;4.47;100.00;102005.16;4920846;29;20044;-79
2023/01/03 09:47:36;;;;;;;6.00;2.97;;;;;;;4.57;100.00;102003.66;4920892;29;20063;-81
2023/01/03 09:50:03;;;;;;;8.23;3.47;;;;;;;4.57;100.00;101997.53;4938702;29;20048;-79
2023/01/03 10:04:40;;;;;;;6.53;3.30;;;;;;;4.76;100.00;102003.25;4944516;29;20039;-81
2023/01/03 10:07:28;;;;;;;6.47;3.20;;;;;;;4.68;100.00;102010.03;4946068;29;20043;-80
2023/01/03 10:10:16;;;;;;;6.60;3.23;;;;;;;4.74;100.00;102015.44;4929224;29;20048;-81
2023/01/03 10:12:46;;;;;;;9.10;3.77;;;;;;;4.85;100.00;102009.56;4890950;29;20653;-82
2023/01/03 10:15:21;;;;;;;6.03;3.43;;;;;;;4.88;100.00;102018.41;4923103;29;20047;-80
2023/01/03 10:18:05;;;;;;;8.53;4.67;;;;;;;4.90;100.00;102015.81;4923503;29;20110;-80
2023/01/03 10:20:44;;;;;;;5.20;3.20;;;;;;;4.97;100.00;102008.13;4939607;29;20046;-79
2023/01/03 10:23:11;;;;;;;9.03;3.57;;;;;;;5.04;100.00;102025.78;4922670;29;20044;-80
2023/01/03 10:25:39;;;;;;;6.93;3.77;;;;;;;5.04;100.00;102019.63;4929934;29;20063;-80
2023/01/03 10:28:23;;;;;;;10.17;3.90;;;;;;;5.13;100.00;102024.19;4937903;29;20048;-80
2023/01/03 10:31:18;;;;;;;7.13;3.85;;;;;;;5.17;100.00;102013.84;4922335;29;20088;-80
2023/01/03 10:33:47;;;;;;;4.07;2.85;;;;;;;5.16;100.00;102014.69;4921688;29;20044;-80
2023/01/03 10:36:16;;;;;;;6.97;3.13;;;;;;;5.19;100.00;102009.50;4928913;29;20047;-79
2023/01/03 10:38:45;;;;;;;5.43;2.70;;;;;;;5.35;100.00;102018.59;4937132;29;20059;-80
2023/01/03 10:41:33;;;;;;;7.37;4.10;;;;;;;5.32;100.00;102016.81;4945613;29;20066;-80
2023/01/03 10:44:01;;;;;;;5.83;3.60;;;;;;;5.39;100.00;102017.84;4915373;29;20048;-80
2023/01/03 10:46:28;;;;;;;7.67;3.80;;;;;;;5.45;100.00;102020.56;4907890;29;20040;-80
2023/01/03 10:49:10;;;;;;;7.53;3.23;;;;;;;5.53;100.00;102016.38;4944229;28;20090;-79
2023/01/03 10:52:02;;;;;;;6.90;3.73;;;;;;;5.64;100.00;102014.91;4939702;28;20060;-80
2023/01/03 10:54:35;;;;;;;7.65;3.33;;;;;;;5.64;100.00;102017.53;4940759;29;20075;-81
2023/01/03 10:57:04;;;;;;;6.97;3.45;;;;;;;5.73;100.00;102008.09;4945150;29;20057;-80
2023/01/03 10:59:31;;;;;;;6.03;2.90;;;;;;;5.80;100.00;102015.19;4909643;29;20083;-81
2023/01/03 11:01:57;;;;;;;5.03;2.70;;;;;;;5.87;100.00;102012.75;4922531;29;20059;-80
2023/01/03 11:04:25;;;;;;;3.50;2.67;;;;;;;6.06;97.29;102016.66;4938830;29;20139;-79
2023/01/03 11:07:11;;;;;;;5.47;3.40;;;;;;;6.24;98.26;102008.25;4926260;29;20048;-81
2023/01/03 11:09:50;;;;;;;4.50;2.60;;;;;;;6.38;96.83;102009.38;4948260;29;20039;-80
2023/01/03 11:12:29;;;;;;;6.40;2.90;;;;;;;6.49;94.47;102002.59;4934878;28;20085;-80
2023/01/03 11:14:57;;;;;;;7.53;2.73;;;;;;;6.66;94.66;102013.41;4912487;29;20043;-79
2023/01/03 11:17:24;;;;;;;5.47;2.90;;;;;;;6.77;89.84;102009.19;4931345;29;20052;-80
2023/01/03 11:19:52;;;;;;;6.53;3.57;;;;;;;6.84;89.99;102019.81;4940160;29;20095;-80
2023/01/03 11:22:37;;;;;;;7.23;2.37;;;;;;;6.87;88.40;102007.59;4943367;29;20088;-80
2023/01/03 11:25:22;;;;;;;5.40;2.43;;;;;;;6.91;86.93;102008.56;4906481;29;20048;-82
2023/01/03 11:28:12;;;;;;;7.53;3.53;;;;;;;6.76;86.27;102009.19;4919637;29;20044;-80
2023/01/03 11:30:53;;;;;;;6.87;2.70;;;;;;;6.61;86.21;102008.91;4923996;29;20044;-79
2023/01/03 11:33:50;;;;;;;4.33;2.67;;;;;;;6.64;87.56;102008.97;4930164;29;20059;-81
2023/01/03 11:36:27;;;;;;;5.73;2.53;;;;;;;6.56;86.20;102013.19;4938081;29;20907;-80
2023/01/03 11:39:05;;;;;;;3.63;2.27;;;;;;;6.46;87.48;102028.78;4950012;28;20044;-80
2023/01/03 11:42:07;;;;;;;3.23;2.50;;;;;;;6.31;88.23;102011.91;4924211;29;20119;-81
2023/01/03 11:44:52;;;;;;;6.03;2.57;;;;;;;6.30;86.53;102018.84;4924559;29;20052;-81
2023/01/03 11:47:56;;;;;;;4.13;2.00;;;;;;;6.26;87.28;102014.41;4921677;29;20040;-80
2023/01/03 11:50:50;;;;;;;58.50;31.47;;;;;;;6.16;86.54;102007.22;4937012;29;20043;-81
2023/01/03 11:53:31;;;;;;;5.77;4.03;;;;;;;6.31;86.31;102004.91;4935898;29;20048;-81
2023/01/03 11:56:35;;;;;;;20.57;18.63;;;;;;;6.39;86.81;102015.50;4944316;29;20051;-80
2023/01/03 11:59:12;;;;;;;4.97;2.72;;;;;;;6.31;87.20;102015.41;4933087;29;20040;-81
2023/01/03 12:02:03;;;;;;;4.47;2.00;;;;;;;6.26;88.46;102018.78;4939100;29;20043;-82
2023/01/03 12:04:56;;;;;;;5.17;2.53;;;;;;;6.31;88.01;102014.53;4937001;29;20586;-82
2023/01/03 12:07:45;;;;;;;5.07;2.73;;;;;;;6.36;87.72;102021.59;4931057;28;20056;-82
2023/01/03 12:10:38;;;;;;;4.50;1.50;;;;;;;6.26;84.77;102021.41;4941769;28;20047;-81
2023/01/03 12:13:22;;;;;;;4.50;1.80;;;;;;;6.38;84.32;102026.88;4920645;29;20044;-81
2023/01/03 12:16:04;;;;;;;5.23;2.87;;;;;;;6.26;82.14;102024.91;4935615;29;20043;-81
2023/01/03 12:18:41;;;;;;;9.00;4.20;;;;;;;6.17;82.41;102030.88;4942950;29;20044;-81
2023/01/03 12:21:35;;;;;;;6.77;2.23;;;;;;;6.20;85.11;102028.28;4924954;29;20418;-81
2023/01/03 12:24:24;;;;;;;5.93;1.90;;;;;;;6.25;82.78;102028.41;4951970;28;20048;-79
2023/01/03 12:26:56;;;;;;;104.33;52.37;;;;;;;6.20;82.68;102024.78;4936018;29;20035;-80
2023/01/03 12:29:28;;;;;;;9.83;4.60;;;;;;;6.10;82.11;102015.84;4911182;29;20055;-81
2023/01/03 12:32:27;;;;;;;48.90;29.93;;;;;;;6.15;81.45;102013.34;4932383;29;20466;-79
2023/01/03 12:35:12;;;;;;;15.23;9.53;;;;;;;6.08;81.63;102019.31;4937868;29;20120;-80
2023/01/03 12:37:39;;;;;;;;;;;;;;;6.07;81.84;102012.31;4925407;29;20527;-79
2023/01/03 12:40:20;;;;;;;4.10;2.43;;;;;;;6.02;83.41;102009.56;4941125;29;20445;-82
2023/01/03 12:42:47;;;;;;;3.47;2.77;;;;;;;6.01;83.55;102009.56;4940195;29;20047;-81
2023/01/03 12:45:37;;;;;;;19.13;16.87;;;;;;;5.96;83.70;102006.81;4936412;29;20052;-81
2023/01/03 12:48:06;;;;;;;3.20;2.27;;;;;;;6.19;83.13;101996.78;4917349;29;20046;-80